Time;durP1;ratioP1;P1;durP2;ratioP2;P2;SDS_P1;SDS_P2;PMS_P1;PMS_P2;Temp;Humidity;BMP_temperature;BMP_pressure;BME280_temperature;BME280_humidity;BME280_pressure;Samples;Min_cycle;Max_cycle;Signal;HPM_P1;HPM_P2
2023/04/09 00:00:33;;;;;;;21.05;10.45;;;9.30;99.90;;;9.20;100.00;101913.09;5195526;28;20097;-71
2023/04/09 00:03:05;;;;;;;22.38;11.77;;;9.30;99.90;;;9.20;100.00;101917.41;5195948;28;20048;-71
2023/04/09 00:05:40;;;;;;;23.98;13.00;;;9.20;99.90;;;9.19;100.00;101915.59;5199038;28;20102;-71
2023/04/09 00:08:12;;;;;;;21.25;10.63;;;9.30;99.90;;;9.19;100.00;101918.19;5199665;28;20042;-73
2023/04/09 00:10:44;;;;;;;20.35;10.77;;;9.20;99.90;;;9.17;100.00;101912.00;5199933;28;20048;-72
2023/04/09 00:13:16;;;;;;;20.90;10.75;;;9.20;99.90;;;9.15;100.00;101909.34;5196948;28;20064;-71
2023/04/09 00:15:50;;;;;;;19.83;10.57;;;9.20;99.90;;;9.14;100.00;101910.16;5200220;28;20490;-71
2023/04/09 00:18:22;;;;;;;18.65;10.02;;;9.20;99.90;;;9.14;100.00;101901.44;5199581;28;20136;-70
2023/04/09 00:20:55;;;;;;;19.65;9.65;;;9.20;99.90;;;9.11;100.00;101906.44;5200441;28;20482;-72
2023/04/09 00:23:27;;;;;;;16.92;9.52;;;9.20;99.90;;;9.09;100.00;101908.97;5199480;28;20036;-72
2023/04/09 00:25:59;;;;;;;24.90;12.15;;;9.10;99.90;;;9.06;100.00;101906.16;5194637;28;20054;-71
2023/04/09 00:28:31;;;;;;;20.45;11.05;;;9.10;99.90;;;9.05;100.00;101907.00;5197970;28;20045;-71
2023/04/09 00:31:05;;;;;;;20.73;10.45;;;9.10;99.90;;;9.05;100.00;101906.09;5198306;28;20417;-71
2023/04/09 00:33:37;;;;;;;24.05;12.13;;;9.10;99.90;;;9.05;100.00;101903.50;5187132;28;20372;-71
2023/04/09 00:36:10;;;;;;;19.15;10.07;;;9.10;99.90;;;9.05;100.00;101895.69;5197936;28;20056;-70
2023/04/09 00:38:43;;;;;;;19.73;10.43;;;9.10;99.90;;;9.06;100.00;101900.06;5199142;28;20061;-70
2023/04/09 00:41:15;;;;;;;18.35;10.00;;;9.10;99.90;;;9.09;100.00;101908.97;5197808;28;20058;-71
2023/04/09 00:43:48;;;;;;;18.60;10.05;;;9.10;99.90;;;9.09;100.00;101905.47;5196619;28;20413;-71
2023/04/09 00:46:22;;;;;;;16.95;9.43;;;9.10;99.90;;;9.09;100.00;101901.16;5197777;28;20045;-72
2023/04/09 00:48:54;;;;;;;16.85;8.98;;;9.10;99.90;;;9.10;100.00;101904.66;5199055;28;20112;-71
2023/04/09 00:51:27;;;;;;;18.17;9.57;;;9.10;99.90;;;9.10;100.00;101905.56;5198135;28;20050;-71
2023/04/09 00:53:59;;;;;;;18.88;9.57;;;9.10;99.90;;;9.09;100.00;101908.97;5197875;28;20052;-72
2023/04/09 00:56:32;;;;;;;16.10;8.95;;;9.10;99.90;;;9.09;100.00;101905.47;5185911;28;20080;-71
2023/04/09 00:59:05;;;;;;;17.33;9.77;;;9.10;99.90;;;9.09;100.00;101901.16;5183507;28;20422;-71
2023/04/09 01:01:38;;;;;;;18.13;9.52;;;9.10;99.90;;;9.08;100.00;101901.09;5183616;28;20054;-71
2023/04/09 01:04:10;;;;;;;22.38;12.10;;;9.10;99.90;;;9.05;100.00;101906.09;5184127;28;20038;-71
2023/04/09 01:06:49;;;;;;;20.50;11.43;;;9.10;99.90;;;9.03;100.00;101899.91;5180332;28;20419;-71
2023/04/09 01:09:27;;;;;;;24.30;12.25;;;9.10;99.90;;;8.98;100.00;101905.72;5181744;28;20080;-71
2023/04/09 01:12:12;;;;;;;23.40;11.50;;;9.00;99.90;;;8.96;100.00;101902.16;5184200;28;20040;-72
2023/04/09 01:14:56;;;;;;;21.15;11.73;;;9.10;99.90;;;8.96;100.00;101903.88;5178642;28;20482;-71
2023/04/09 01:17:38;;;;;;;24.10;12.95;;;9.00;99.90;;;8.95;100.00;101892.56;5184982;28;20121;-71
2023/04/09 01:20:13;;;;;;;;;;;9.00;99.90;;;8.91;100.00;101894.88;5183509;28;20477;-71
2023/04/09 01:22:58;;;;;;;24.83;12.27;;;9.00;99.90;;;8.87;100.00;101888.63;5183992;28;19921;-71
2023/04/09 01:25:45;;;;;;;22.17;12.15;;;9.00;99.90;;;8.86;100.00;101892.00;5184657;28;20034;-70
2023/04/09 01:28:22;;;;;;;22.88;11.18;;;9.00;99.90;;;8.80;100.00;101899.47;5182432;28;20400;-71
2023/04/09 01:31:01;;;;;;;23.95;12.18;;;8.90;99.90;;;8.79;100.00;101895.06;5183895;28;20049;-71
2023/04/09 01:33:35;;;;;;;21.85;10.88;;;8.90;99.90;;;8.78;100.00;101889.75;5183331;28;20065;-71
2023/04/09 01:36:08;;;;;;;21.23;10.45;;;8.90;99.90;;;8.80;100.00;101890.75;5184760;28;20060;-72
2023/04/09 01:38:43;;;;;;;22.08;11.80;;;8.90;99.90;;;8.80;100.00;101894.28;5184857;28;20042;-72
2023/04/09 01:41:21;;;;;;;22.63;10.65;;;8.90;99.90;;;8.78;100.00;101889.75;5183249;28;20049;-72
2023/04/09 01:43:55;;;;;;;19.88;10.45;;;8.90;99.90;;;8.76;100.00;101896.59;5181086;28;20042;-72
2023/04/09 01:46:29;;;;;;;19.05;10.90;;;8.80;99.90;;;8.75;100.00;101884.41;5181851;28;20153;-71
2023/04/09 01:49:02;;;;;;;21.98;10.57;;;8.80;99.90;;;8.73;100.00;101897.28;5184217;28;20049;-73
2023/04/09 01:51:35;;;;;;;21.92;10.35;;;8.80;99.90;;;8.72;100.00;101894.59;5183982;28;20046;-72
2023/04/09 01:54:07;;;;;;;19.55;9.95;;;8.80;99.90;;;8.68;100.00;101893.53;5184395;28;20118;-71
2023/04/09 01:56:42;;;;;;;18.25;9.70;;;8.70;99.90;;;8.65;100.00;101894.22;5170957;28;20066;-72
2023/04/09 01:59:15;;;;;;;18.33;9.02;;;8.70;99.90;;;8.64;100.00;101901.94;5178956;28;20046;-73
2023/04/09 02:01:56;;;;;;;17.67;8.82;;;8.70;99.90;;;8.58;100.00;101892.06;5183369;28;20134;-72
2023/04/09 02:04:33;;;;;;;18.58;8.98;;;8.60;99.90;;;8.53;100.00;101893.50;5184111;28;20045;-73
2023/04/09 02:07:10;;;;;;;16.33;8.98;;;8.60;99.90;;;8.49;100.00;101895.84;5182159;28;20077;-73
2023/04/09 02:09:46;;;;;;;17.02;8.63;;;8.60;99.90;;;8.46;100.00;101898.22;5191706;28;20050;-72
2023/04/09 02:12:21;;;;;;;16.05;7.90;;;8.50;99.90;;;8.40;100.00;101891.84;5166117;28;20051;-73
2023/04/09 02:14:55;;;;;;;15.30;8.55;;;8.50;99.90;;;8.38;100.00;101896.06;5177210;28;20049;-72
2023/04/09 02:17:27;;;;;;;19.20;9.10;;;8.50;99.90;;;8.37;100.00;101902.06;5180078;28;20045;-72
2023/04/09 02:19:59;;;;;;;15.68;8.10;;;8.40;99.90;;;8.35;100.00;101892.38;5170865;28;20069;-71
2023/04/09 02:22:31;;;;;;;16.00;7.97;;;8.40;99.90;;;8.32;100.00;101886.97;5181005;28;20065;-71
2023/04/09 02:25:05;;;;;;;17.23;9.43;;;8.40;99.90;;;8.29;100.00;101892.88;5182848;28;20137;-73
2023/04/09 02:27:37;;;;;;;19.42;10.02;;;8.30;99.90;;;8.26;100.00;101886.59;5182140;28;20042;-72
2023/04/09 02:30:12;;;;;;;19.77;9.73;;;8.30;99.90;;;8.25;100.00;101888.28;5183744;28;20499;-72
2023/04/09 02:32:44;;;;;;;20.75;10.48;;;8.30;99.90;;;8.24;100.00;101896.00;5183153;28;20045;-71
2023/04/09 02:35:16;;;;;;;20.17;10.57;;;8.30;99.90;;;8.22;100.00;101888.13;5183715;28;20056;-72
2023/04/09 02:37:48;;;;;;;21.48;11.02;;;8.30;99.90;;;8.22;100.00;101884.63;5197315;28;20069;-72
2023/04/09 02:40:21;;;;;;;19.67;10.52;;;8.30;99.90;;;8.21;100.00;101886.28;5179635;28;20052;-71
2023/04/09 02:42:55;;;;;;;23.40;11.55;;;8.30;99.90;;;8.17;100.00;101884.34;5182643;28;20050;-72
2023/04/09 02:45:29;;;;;;;23.08;11.80;;;8.30;99.90;;;8.08;100.00;101886.34;5181977;28;20050;-72
2023/04/09 02:48:03;;;;;;;22.42;12.07;;;8.20;99.90;;;8.04;100.00;101880.06;5182622;28;20211;-73
2023/04/09 02:50:39;;;;;;;20.80;11.45;;;8.20;99.90;;;8.00;100.00;101877.19;5173942;28;20562;-72
2023/04/09 02:53:11;;;;;;;23.23;12.48;;;8.20;99.90;;;7.95;100.00;101878.59;5183652;28;20046;-72
2023/04/09 02:55:44;;;;;;;22.45;12.23;;;8.10;99.90;;;7.91;100.00;101881.81;5175667;28;20144;-72
2023/04/09 02:58:16;;;;;;;24.63;12.38;;;8.10;99.90;;;7.87;100.00;101881.59;5181450;28;20495;-70
2023/04/09 03:00:49;;;;;;;23.13;10.68;;;8.10;99.90;;;7.87;100.00;101875.53;5181819;28;20410;-70
2023/04/09 03:03:21;;;;;;;20.50;10.77;;;8.00;99.90;;;7.85;100.00;101878.03;5181743;28;20128;-72
2023/04/09 03:05:54;;;;;;;20.10;10.88;;;8.00;99.90;;;7.85;100.00;101872.84;5183075;28;20121;-72
2023/04/09 03:08:26;;;;;;;21.25;10.90;;;8.00;99.90;;;7.86;100.00;101872.03;5182344;28;20041;-73
2023/04/09 03:11:00;;;;;;;19.38;10.55;;;8.00;99.90;;;7.89;100.00;101864.44;5182130;28;20494;-72
2023/04/09 03:13:33;;;;;;;22.30;10.85;;;8.00;99.90;;;7.89;100.00;101864.44;5198044;28;20144;-71
2023/04/09 03:16:09;;;;;;;20.70;10.50;;;8.00;99.90;;;7.88;100.00;101862.63;5183075;28;20041;-71
2023/04/09 03:18:41;;;;;;;23.02;11.75;;;8.10;99.90;;;7.82;100.00;101858.75;5181150;28;20517;-72
2023/04/09 03:21:13;;;;;;;24.55;12.30;;;8.00;99.90;;;7.77;100.00;101858.47;5181618;28;20141;-72
2023/04/09 03:23:51;;;;;;;23.77;11.75;;;8.00;99.90;;;7.69;100.00;101851.88;5175189;28;20419;-71
2023/04/09 03:26:23;;;;;;;26.50;13.35;;;7.90;99.90;;;7.67;100.00;101866.47;5181737;28;20578;-72
2023/04/09 03:28:56;;;;;;;24.92;12.77;;;7.90;99.90;;;7.60;100.00;101853.91;5181554;28;20049;-73
2023/04/09 03:31:29;;;;;;;22.25;10.82;;;7.80;99.90;;;7.58;100.00;101855.53;5181618;28;20153;-73
2023/04/09 03:34:02;;;;;;;23.73;12.38;;;7.80;99.90;;;7.47;100.00;101847.03;5181994;28;20518;-74
2023/04/09 03:36:37;;;;;;;25.90;13.30;;;7.70;99.90;;;7.44;100.00;101856.34;5181557;28;20046;-72
2023/04/09 03:39:15;;;;;;;22.80;11.57;;;7.70;99.90;;;7.46;100.00;101852.16;5181229;28;20096;-71
2023/04/09 03:41:50;;;;;;;22.33;11.40;;;7.70;99.90;;;7.51;100.00;101848.16;5181733;28;20526;-72
2023/04/09 03:44:24;;;;;;;20.85;10.45;;;7.70;99.90;;;7.54;100.00;101850.94;5181067;28;20046;-73
2023/04/09 03:47:05;;;;;;;21.85;10.68;;;7.70;99.90;;;7.57;100.00;101851.16;5181824;28;20046;-71
2023/04/09 03:49:39;;;;;;;20.05;10.57;;;7.70;99.90;;;7.59;100.00;101857.31;5182226;28;20041;-72
2023/04/09 03:52:20;;;;;;;19.17;10.75;;;7.70;99.90;;;7.59;100.00;101852.13;5165326;28;20392;-72
2023/04/09 03:55:03;;;;;;;21.33;10.52;;;7.70;99.90;;;7.61;100.00;101855.72;5181853;28;20042;-71
2023/04/09 03:57:36;;;;;;;21.60;10.82;;;7.70;99.90;;;7.58;100.00;101855.53;5181116;28;20050;-71
2023/04/09 04:00:12;;;;;;;22.88;10.15;;;7.70;99.90;;;7.58;100.00;101855.53;5181055;28;20046;-73
2023/04/09 04:02:59;;;;;;;19.20;10.32;;;7.70;99.90;;;7.60;100.00;101849.63;5176206;28;20053;-72
2023/04/09 04:05:51;;;;;;;19.00;10.23;;;7.70;99.90;;;7.62;100.00;101852.31;5182431;28;20143;-72
2023/04/09 04:08:24;;;;;;;18.02;9.10;;;7.80;99.90;;;7.64;100.00;101853.31;5186606;28;20070;-72
2023/04/09 04:11:03;;;;;;;18.80;10.57;;;7.80;99.90;;;7.64;100.00;101855.91;5182480;28;20096;-72
2023/04/09 04:13:35;;;;;;;21.88;11.25;;;7.80;99.90;;;7.56;100.00;101847.66;5213062;23;20845;-83
2023/04/09 04:16:11;;;;;;;23.60;10.98;;;7.70;99.90;;;7.45;100.00;101847.75;5153382;28;20098;-87
2023/04/09 04:18:47;;;;;;;22.20;10.82;;;7.70;99.90;;;7.46;100.00;101850.44;5176455;23;20490;-69
2023/04/09 04:21:20;;;;;;;22.95;11.23;;;7.70;99.90;;;7.43;100.00;101850.22;5107386;29;20054;-69
2023/04/09 04:24:01;;;;;;;24.38;11.27;;;7.70;99.90;;;7.45;100.00;101842.56;5120179;29;20043;-69
2023/04/09 04:26:36;;;;;;;20.60;11.27;;;7.70;99.90;;;7.44;100.00;101845.97;5128625;28;20043;-69
2023/04/09 04:29:09;;;;;;;19.90;9.65;;;7.60;99.90;;;7.47;100.00;101843.56;5124366;28;20051;-69
2023/04/09 04:32:10;;;;;;;19.50;9.05;;;7.70;99.90;;;7.53;100.00;101843.94;5118907;28;20070;-68
2023/04/09 04:34:48;;;;;;;18.05;7.53;;;7.70;99.90;;;7.55;100.00;101847.53;5120068;28;20382;-68
2023/04/09 04:37:27;;;;;;;16.88;9.20;;;7.70;99.90;;;7.47;100.00;101843.56;5121361;29;20130;-69
2023/04/09 04:40:05;;;;;;;19.95;9.63;;;7.60;99.90;;;7.51;100.00;101843.88;5121169;28;20059;-69
2023/04/09 04:42:42;;;;;;;16.20;8.65;;;7.70;99.90;;;7.55;100.00;101840.63;5123807;29;20049;-69
2023/04/09 04:45:19;;;;;;;16.10;8.15;;;7.70;99.90;;;7.60;100.00;101848.72;5108086;29;20713;-68
2023/04/09 04:47:55;;;;;;;17.77;8.93;;;7.70;99.90;;;7.59;100.00;101846.94;5127693;28;20048;-69
2023/04/09 04:50:31;;;;;;;15.30;8.02;;;7.70;99.90;;;7.61;100.00;101845.31;5135635;28;20048;-69
2023/04/09 04:53:12;;;;;;;16.40;7.75;;;7.80;99.90;;;7.65;100.00;101852.53;5127862;28;20552;-69
2023/04/09 04:55:53;;;;;;;16.23;8.07;;;7.80;99.90;;;7.63;100.00;101854.13;5120048;29;20032;-69
2023/04/09 04:58:30;;;;;;;16.63;7.90;;;7.80;99.90;;;7.63;100.00;101854.13;5126510;28;20500;-69
2023/04/09 05:01:07;;;;;;;14.02;7.32;;;7.70;99.90;;;7.64;100.00;101860.22;5128057;28;20058;-70
2023/04/09 05:03:39;;;;;;;17.17;8.57;;;7.80;99.90;;;7.62;100.00;101857.50;5138344;28;20051;-69
2023/04/09 05:06:30;;;;;;;15.98;8.15;;;7.80;99.90;;;7.61;100.00;101856.59;5121867;28;20069;-69
2023/04/09 05:09:04;;;;;;;18.23;9.05;;;7.70;99.90;;;7.56;100.00;101858.03;5117483;29;20098;-70
2023/04/09 05:11:45;;;;;;;14.70;8.35;;;7.70;99.90;;;7.56;100.00;101859.69;5122881;28;20130;-69
2023/04/09 05:14:24;;;;;;;18.92;8.43;;;7.70;99.90;;;7.45;100.00;101856.44;5123409;28;20118;-69
2023/04/09 05:16:56;;;;;;;19.17;9.07;;;7.70;99.90;;;7.41;100.00;101853.53;5120841;28;20043;-69
2023/04/09 05:19:34;;;;;;;17.25;8.02;;;7.60;99.90;;;7.43;100.00;101860.59;5118578;29;20423;-69
2023/04/09 05:22:09;;;;;;;19.15;7.97;;;7.60;99.90;;;7.45;100.00;101863.34;5119497;29;20043;-68
2023/04/09 05:24:41;;;;;;;18.23;8.95;;;7.60;99.90;;;7.46;100.00;101857.34;5105699;29;20152;-68
2023/04/09 05:27:18;;;;;;;15.43;7.35;;;7.60;99.90;;;7.45;100.00;101858.16;5104261;29;20058;-69
2023/04/09 05:29:52;;;;;;;17.50;8.38;;;7.60;99.90;;;7.44;100.00;101864.13;5115886;29;20047;-69
2023/04/09 05:32:25;;;;;;;17.90;8.75;;;7.60;99.90;;;7.40;100.00;101869.91;5130284;28;20552;-70
2023/04/09 05:34:57;;;;;;;16.20;7.40;;;7.60;99.90;;;7.46;100.00;101859.94;5112894;28;20052;-68
2023/04/09 05:37:33;;;;;;;15.80;7.25;;;7.60;99.90;;;7.52;100.00;101866.41;5118230;28;20048;-69
2023/04/09 05:40:07;;;;;;;14.70;6.55;;;7.70;99.90;;;7.57;100.00;101870.19;5123252;28;20508;-69
2023/04/09 05:42:40;;;;;;;16.52;7.70;;;7.70;99.90;;;7.54;100.00;101858.72;5127929;28;20147;-68
2023/04/09 05:45:18;;;;;;;15.30;7.60;;;7.70;99.90;;;7.49;100.00;101870.50;5111116;29;20055;-69
2023/04/09 05:47:58;;;;;;;18.42;8.18;;;7.70;99.90;;;7.51;100.00;101869.81;5124998;28;20531;-69
2023/04/09 05:50:31;;;;;;;15.68;7.05;;;7.70;99.90;;;7.59;100.00;101868.59;5130584;28;20044;-69
2023/04/09 05:53:05;;;;;;;15.52;6.70;;;7.80;99.90;;;7.68;100.00;101870.88;5122408;29;20051;-69
2023/04/09 05:55:43;;;;;;;16.05;7.18;;;7.90;99.90;;;7.71;100.00;101871.06;5112557;29;20038;-70
2023/04/09 05:58:17;;;;;;;15.50;7.25;;;7.90;99.90;;;7.79;100.00;101876.75;5118170;29;20114;-69
2023/04/09 06:00:50;;;;;;;16.50;8.05;;;7.90;99.90;;;7.88;100.00;101875.59;5115273;28;20054;-69
2023/04/09 06:03:22;;;;;;;15.82;7.65;;;8.00;99.90;;;7.88;100.00;101873.00;5122730;29;20051;-56
2023/04/09 06:05:54;;;;;;;16.60;6.88;;;8.10;99.90;;;7.94;100.00;101874.19;5123417;29;20051;-54
2023/04/09 06:08:28;;;;;;;14.90;7.60;;;8.10;99.90;;;7.97;100.00;101883.09;5125011;29;20500;-55
2023/04/09 06:11:00;;;;;;;18.35;7.50;;;8.10;99.90;;;8.02;100.00;101871.31;5124677;28;20051;-53
2023/04/09 06:13:32;;;;;;;12.20;6.50;;;8.20;99.90;;;8.11;100.00;101869.25;5123448;28;20074;-54
2023/04/09 06:16:05;;;;;;;15.85;7.30;;;8.30;99.90;;;8.10;100.00;101869.19;5123333;29;20047;-54
2023/04/09 06:18:37;;;;;;;15.85;7.60;;;8.30;99.90;;;8.17;100.00;101881.72;5139311;28;20055;-53
2023/04/09 06:21:09;;;;;;;13.52;6.47;;;8.30;99.90;;;8.26;100.00;101881.38;5123178;28;20503;-54
2023/04/09 06:23:43;;;;;;;14.38;6.05;;;8.40;99.90;;;8.42;100.00;101874.66;5105931;29;20124;-53
2023/04/09 06:26:15;;;;;;;13.50;5.93;;;8.50;99.90;;;8.61;100.00;101876.69;5104780;29;20047;-53
2023/04/09 06:28:47;;;;;;;18.17;7.43;;;8.70;99.90;;;8.80;100.00;101868.28;5115944;29;20054;-55
2023/04/09 06:31:19;;;;;;;14.02;6.07;;;8.80;99.90;;;8.97;100.00;101875.34;5124334;29;20050;-55
2023/04/09 06:33:51;;;;;;;12.57;6.00;;;9.00;99.90;;;9.30;100.00;101875.47;5124772;29;20051;-55
2023/04/09 06:36:24;;;;;;;11.63;5.47;;;9.20;99.90;;;9.61;100.00;101872.00;5124428;29;20047;-53
2023/04/09 06:38:57;;;;;;;11.80;6.05;;;9.40;99.90;;;9.85;100.00;101872.47;5124455;29;20068;-52
2023/04/09 06:41:31;;;;;;;14.25;6.75;;;9.70;99.90;;;10.26;100.00;101874.75;5124011;29;20091;-54
2023/04/09 06:44:03;;;;;;;12.20;6.72;;;10.00;99.90;;;10.63;96.55;101869.75;5117910;29;20075;-53
2023/04/09 06:46:35;;;;;;;13.10;6.60;;;10.30;99.90;;;10.98;93.22;101876.75;5123390;28;20043;-54
2023/04/09 06:49:07;;;;;;;12.20;5.88;;;10.70;99.90;;;11.41;92.81;101876.25;5116463;29;20523;-53
2023/04/09 06:51:39;;;;;;;13.40;6.05;;;11.00;99.90;;;12.53;90.27;101877.13;5114742;28;20052;-52
2023/04/09 06:54:13;;;;;;;13.40;6.53;;;11.80;99.90;;;13.06;83.70;101875.91;5122307;28;20055;-53
2023/04/09 06:56:45;;;;;;;11.25;5.40;;;12.40;99.90;;;13.18;82.17;101878.16;5127626;28;20058;-54
2023/04/09 06:59:17;;;;;;;10.07;5.40;;;12.60;99.80;;;13.04;81.07;101883.72;5148456;28;20106;-54
2023/04/09 07:01:49;;;;;;;11.13;5.07;;;12.70;98.60;;;13.02;81.59;101885.34;5130747;28;20051;-54
2023/04/09 07:04:21;;;;;;;10.70;5.32;;;12.70;98.60;;;12.83;80.68;101893.25;5123463;28;20059;-53
2023/04/09 07:06:55;;;;;;;10.73;5.00;;;12.60;98.00;;;12.58;81.33;101880.81;5131560;28;20571;-53
2023/04/09 07:09:30;;;;;;;10.27;5.25;;;12.50;98.00;;;12.44;81.27;101892.41;5123158;28;20050;-54
2023/04/09 07:12:02;;;;;;;9.88;4.93;;;12.30;97.90;;;12.26;81.71;101896.78;5130892;28;20051;-54
2023/04/09 07:14:34;;;;;;;10.32;5.57;;;12.20;98.00;;;12.19;83.28;101891.31;5137053;28;20081;-54
2023/04/09 07:17:06;;;;;;;9.63;5.07;;;12.10;98.90;;;12.29;84.91;101902.19;5136604;28;20050;-55
2023/04/09 07:19:38;;;;;;;9.50;4.50;;;12.20;99.90;;;12.29;82.67;101892.59;5134053;28;20113;-55
2023/04/09 07:22:10;;;;;;;10.27;4.95;;;12.20;98.70;;;12.38;83.33;101900.84;5157508;28;20193;-54
2023/04/09 07:24:44;;;;;;;9.70;4.65;;;12.20;98.90;;;12.44;83.09;101898.50;5140092;28;20049;-56
2023/04/09 07:27:16;;;;;;;9.40;4.45;;;12.30;98.90;;;12.63;83.19;101905.47;5129791;28;20084;-55
2023/04/09 07:29:48;;;;;;;8.68;4.68;;;12.40;99.00;;;12.90;83.16;101899.63;5130910;28;20051;-55
2023/04/09 07:32:20;;;;;;;10.32;5.40;;;12.60;99.30;;;13.24;83.64;101902.00;5130617;28;20046;-55
2023/04/09 07:34:53;;;;;;;10.13;4.45;;;12.80;99.50;;;13.99;84.89;101891.88;5126340;28;20419;-54
2023/04/09 07:37:25;;;;;;;9.50;4.40;;;13.40;99.90;;;14.84;77.63;101900.28;5126487;28;20047;-56
2023/04/09 07:39:59;;;;;;;10.63;5.43;;;14.00;97.00;;;15.74;74.99;101903.31;5134442;28;20047;-54
2023/04/09 07:42:32;;;;;;;9.73;4.85;;;14.70;95.60;;;16.81;71.80;101892.41;5133678;28;20064;-55
2023/04/09 07:45:05;;;;;;;9.18;4.80;;;15.50;93.60;;;17.75;68.63;101904.47;5130479;28;20050;-54
2023/04/09 07:47:38;;;;;;;8.15;3.97;;;16.30;91.20;;;18.40;65.41;101898.81;5150419;28;20101;-54
2023/04/09 07:50:11;;;;;;;8.80;4.57;;;16.80;86.50;;;18.95;64.10;101902.53;5134966;28;20134;-55
2023/04/09 07:52:43;;;;;;;9.15;4.88;;;17.30;83.70;;;18.93;61.66;101905.16;5141156;28;20428;-54
2023/04/09 07:55:17;;;;;;;8.45;4.05;;;17.50;78.90;;;19.53;62.08;101904.41;5136859;28;20050;-55
2023/04/09 07:57:50;;;;;;;9.65;4.43;;;17.90;78.70;;;20.39;59.56;101902.09;5124196;28;20082;-56
2023/04/09 08:00:22;;;;;;;9.15;5.05;;;18.40;75.70;;;20.76;58.59;101896.38;5130219;28;20053;-54
2023/04/09 08:02:56;;;;;;;8.70;4.78;;;18.80;74.30;;;21.25;57.70;101896.81;5126035;28;20039;-54
2023/04/09 08:05:28;;;;;;;8.63;4.78;;;19.10;73.00;;;21.67;56.54;101904.25;5141410;28;20050;-56
2023/04/09 08:08:00;;;;;;;8.50;4.60;;;19.50;71.70;;;21.62;56.09;101903.31;5140097;28;20090;-56
2023/04/09 08:10:33;;;;;;;10.00;5.63;;;19.60;70.30;;;22.00;54.33;101900.00;5127074;28;20050;-55
2023/04/09 08:13:05;;;;;;;7.68;4.65;;;19.80;68.60;;;22.71;53.77;101901.19;5133457;28;20051;-54
2023/04/09 08:15:37;;;;;;;8.57;5.10;;;20.30;67.80;;;23.47;51.66;101903.94;5141534;28;20439;-58
2023/04/09 08:18:09;;;;;;;8.60;4.60;;;20.90;66.00;;;24.13;49.94;101910.94;5146209;28;20043;-54
2023/04/09 08:20:44;;;;;;;9.95;5.18;;;21.60;63.50;;;24.79;49.02;101901.75;5137911;28;20058;-55
2023/04/09 08:23:15;;;;;;;;;;;22.10;62.20;;;25.27;47.13;101901.41;5132696;28;20519;-56
2023/04/09 08:25:49;;;;;;;7.20;4.22;;;22.70;60.10;;;25.59;46.18;101901.13;5134514;28;20037;-56
2023/04/09 08:28:22;;;;;;;9.07;4.75;;;22.90;58.90;;;25.78;45.32;101901.84;5126041;28;20448;-57
2023/04/09 08:30:54;;;;;;;8.02;5.13;;;23.10;57.60;;;25.89;43.95;101894.59;5126417;28;20134;-58
2023/04/09 08:33:26;;;;;;;7.70;4.45;;;23.30;56.00;;;26.52;44.01;101897.38;5134150;28;20057;-61
2023/04/09 08:35:58;;;;;;;7.95;4.65;;;23.70;56.20;;;26.77;43.76;101898.81;5134128;28;20047;-59
2023/04/09 08:38:30;;;;;;;8.75;4.95;;;23.90;55.90;;;26.37;43.12;101886.88;5134372;28;20059;-60
2023/04/09 08:41:04;;;;;;;7.45;4.10;;;23.60;54.60;;;26.99;42.98;101893.09;5141426;28;20051;-56
2023/04/09 08:43:38;;;;;;;7.00;4.10;;;24.10;54.80;;;27.48;42.96;101898.56;5134594;28;20054;-57
2023/04/09 08:46:11;;;;;;;6.90;3.85;;;24.50;55.00;;;27.99;40.47;101900.31;5130919;28;20055;-53
2023/04/09 08:48:45;;;;;;;6.80;3.97;;;24.90;53.30;;;28.13;38.35;101893.75;5125708;28;20054;-55
2023/04/09 08:51:19;;;;;;;6.72;3.80;;;25.10;50.90;;;28.33;36.00;101895.16;5133815;28;20043;-53
2023/04/09 08:53:56;;;;;;;5.35;3.65;;;25.30;49.10;;;28.20;35.95;101888.25;5143240;28;20039;-54
2023/04/09 08:56:30;;;;;;;6.28;3.55;;;25.20;49.20;;;28.37;35.88;101892.38;5141241;28;20043;-54
2023/04/09 08:59:02;;;;;;;;;;;25.30;49.00;;;27.91;35.00;101902.25;5138920;28;20404;-55
2023/04/09 09:01:34;;;;;;;5.53;3.33;;;25.10;48.10;;;26.79;34.94;101898.78;5136557;28;19930;-56
2023/04/09 09:04:08;;;;;;;5.95;3.40;;;24.30;47.50;;;25.67;35.78;101893.91;5133566;28;20047;-56
2023/04/09 09:06:41;;;;;;;6.15;3.50;;;23.60;47.80;;;25.13;37.08;101901.53;5125450;28;20420;-55
2023/04/09 09:09:16;;;;;;;5.57;3.60;;;23.20;49.10;;;24.52;38.76;101899.25;5141408;28;20105;-56
2023/04/09 09:11:50;;;;;;;6.70;3.90;;;22.80;50.70;;;24.49;38.93;101891.25;5135381;28;20047;-56
2023/04/09 09:14:23;;;;;;;5.50;3.60;;;22.80;50.50;;;24.44;39.51;101885.94;5127283;28;20047;-56
2023/04/09 09:17:05;;;;;;;7.25;4.35;;;22.90;51.30;;;23.50;40.31;101895.06;5132927;28;20086;-55
2023/04/09 09:19:37;;;;;;;6.97;3.95;;;22.50;51.50;;;22.73;41.87;101891.44;5127501;28;20098;-54
2023/04/09 09:22:11;;;;;;;6.10;3.33;;;21.90;52.40;;;22.36;43.50;101891.34;5130422;28;20049;-55
2023/04/09 09:24:48;;;;;;;5.45;3.17;;;21.60;53.80;;;22.15;44.30;101873.56;5135115;28;20055;-56
2023/04/09 09:27:38;;;;;;;6.78;4.20;;;21.50;54.30;;;21.73;44.08;101875.97;5129938;28;20054;-56
2023/04/09 09:30:22;;;;;;;6.53;3.70;;;21.20;53.90;;;21.31;45.61;101873.03;5135563;28;20054;-56
2023/04/09 09:32:55;;;;;;;7.95;4.80;;;20.80;55.20;;;20.74;45.05;101884.88;5125868;28;20051;-57
2023/04/09 09:35:27;;;;;;;9.07;4.47;;;20.30;54.50;;;20.11;44.91;101880.56;5125420;28;20566;-56
2023/04/09 09:38:04;;;;;;;7.55;4.30;;;19.80;54.30;;;19.12;47.06;101877.31;5124192;28;20493;-58
2023/04/09 09:40:36;;;;;;;6.90;4.28;;;19.00;56.00;;;18.85;48.94;101868.91;5125265;28;20043;-58
2023/04/09 09:43:09;;;;;;;8.73;4.60;;;18.70;57.80;;;18.63;49.26;101871.09;5139392;28;20063;-55
2023/04/09 09:45:43;;;;;;;7.10;3.70;;;18.40;58.10;;;18.38;49.79;101866.19;5125889;28;20043;-57
2023/04/09 09:48:15;;;;;;;6.40;3.67;;;18.10;59.20;;;18.17;50.54;101867.56;5134842;28;20542;-57
2023/04/09 09:50:49;;;;;;;8.50;4.95;;;17.90;59.50;;;17.73;50.63;101869.22;5143051;28;20050;-56
2023/04/09 09:53:26;;;;;;;9.95;5.20;;;17.50;59.40;;;17.11;51.70;101870.34;5134485;28;20401;-54
2023/04/09 09:56:01;;;;;;;8.27;4.60;;;17.00;60.20;;;16.71;52.92;101864.06;5136243;28;20530;-53
2023/04/09 09:58:40;;;;;;;9.77;5.03;;;16.60;61.40;;;16.49;53.71;101858.16;5133286;28;20058;-54
2023/04/09 10:01:14;;;;;;;8.38;4.28;;;16.40;62.20;;;16.46;54.96;101847.56;5135131;28;20055;-54
2023/04/09 10:03:47;;;;;;;9.30;4.30;;;16.20;63.20;;;16.81;56.91;101848.53;5132804;28;20503;-54
2023/04/09 10:06:19;;;;;;;8.68;4.35;;;16.40;65.20;;;17.02;55.69;101858.75;5133192;28;20145;-54
2023/04/09 10:08:52;;;;;;;8.80;4.90;;;16.50;64.70;;;16.86;54.29;101859.19;5136049;28;20050;-56
2023/04/09 10:11:24;;;;;;;10.70;5.10;;;16.50;63.60;;;16.53;54.69;101849.50;5136781;28;20054;-53
2023/04/09 10:13:58;;;;;;;9.35;4.82;;;16.30;63.60;;;16.28;55.50;101845.31;5174697;23;20047;-81
2023/04/09 10:16:31;;;;;;;9.95;4.82;;;16.10;64.40;;;16.14;56.15;101848.41;5143507;28;20046;-82
2023/04/09 10:19:03;;;;;;;8.38;4.22;;;16.00;64.90;;;16.17;56.96;101845.84;5140937;28;20058;-82
2023/04/09 10:21:43;;;;;;;8.07;4.28;;;15.90;65.70;;;16.41;57.30;101841.28;5157950;28;20491;-81
2023/04/09 10:24:17;;;;;;;9.30;4.72;;;16.00;66.40;;;16.51;55.27;101835.44;5149140;28;20095;-85
2023/04/09 10:26:49;;;;;;;11.27;5.05;;;16.10;64.80;;;16.50;55.55;101827.50;5147186;28;20058;-80
2023/04/09 10:29:28;;;;;;;8.77;4.05;;;16.20;65.00;;;16.50;56.32;101838.91;5145064;28;20050;-80
2023/04/09 10:32:06;;;;;;;8.50;4.65;;;16.20;65.80;;;16.46;55.92;101839.66;5146908;28;20042;-83
2023/04/09 10:34:40;;;;;;;10.13;4.70;;;16.20;65.40;;;16.40;55.27;101835.97;5163309;28;20157;-81
2023/04/09 10:37:16;;;;;;;8.90;4.65;;;16.10;64.80;;;16.20;55.62;101823.16;5157543;28;20043;-81
2023/04/09 10:39:51;;;;;;;7.55;4.65;;;16.00;65.20;;;16.05;56.59;101838.53;5150758;28;20070;-84